createdAt,value
2023-05-09T00:04:13.419Z,16.60
2023-05-09T00:09:15.187Z,17.00
2023-05-09T00:14:18.360Z,16.40
2023-05-09T00:19:20.221Z,16.27
2023-05-09T00:24:22.096Z,18.10
2023-05-09T00:29:23.764Z,16.37
2023-05-09T00:34:25.565Z,17.27
2023-05-09T00:39:27.558Z,16.40
2023-05-09T00:44:29.417Z,16.80
2023-05-09T00:49:31.291Z,16.70
2023-05-09T00:54:33.033Z,16.83
2023-05-09T00:59:35.059Z,16.50
2023-05-09T01:04:37.572Z,17.67
2023-05-09T01:10:01.801Z,16.17
2023-05-09T01:15:12.824Z,15.77
2023-05-09T01:20:19.332Z,14.87
2023-05-09T01:25:41.835Z,14.60
2023-05-09T01:30:46.879Z,14.07
2023-05-09T01:35:53.986Z,13.57
2023-05-09T01:40:58.480Z,13.07
2023-05-09T01:46:00.960Z,13.20
2023-05-09T01:51:05.572Z,13.27
2023-05-09T01:56:08.677Z,12.30
2023-05-09T02:01:10.837Z,12.03
2023-05-09T02:06:13.962Z,12.40
2023-05-09T02:11:15.904Z,12.63
2023-05-09T02:16:19.985Z,14.17
2023-05-09T02:21:22.504Z,12.67
2023-05-09T02:26:28.576Z,12.27
2023-05-09T02:31:31.867Z,13.07
2023-05-09T02:36:34.751Z,13.47
2023-05-09T02:41:36.854Z,13.23
2023-05-09T02:46:38.511Z,15.17
2023-05-09T02:51:40.230Z,13.97
2023-05-09T02:56:42.000Z,12.97
2023-05-09T03:01:43.684Z,12.53
2023-05-09T03:06:45.711Z,14.33
2023-05-09T03:11:47.340Z,12.20
2023-05-09T03:16:48.944Z,14.67
2023-05-09T03:21:50.597Z,14.60
2023-05-09T03:26:52.186Z,13.43
2023-05-09T03:31:53.901Z,14.27
2023-05-09T03:36:55.538Z,14.43
2023-05-09T03:41:57.302Z,13.53
2023-05-09T03:46:59.032Z,13.20
2023-05-09T03:52:00.734Z,14.53
2023-05-09T03:57:02.447Z,11.97
2023-05-09T04:02:04.112Z,13.40
2023-05-09T04:07:05.747Z,13.40
2023-05-09T04:12:07.632Z,16.37
2023-05-09T04:17:09.476Z,15.70
2023-05-09T04:22:11.298Z,15.17
2023-05-09T04:27:12.928Z,13.93
2023-05-09T04:32:14.717Z,15.00
2023-05-09T04:37:17.241Z,17.00
2023-05-09T04:42:18.940Z,16.80
2023-05-09T04:47:20.587Z,16.07
2023-05-09T04:52:22.337Z,16.57
2023-05-09T04:57:24.260Z,17.43
2023-05-09T05:02:28.511Z,18.60
2023-05-09T05:07:30.180Z,18.27
2023-05-09T05:12:31.799Z,16.60
2023-05-09T05:17:34.095Z,16.77
2023-05-09T05:22:36.468Z,18.60
2023-05-09T05:27:38.218Z,17.93
2023-05-09T05:32:39.902Z,18.50
2023-05-09T05:37:42.355Z,19.63
2023-05-09T05:42:44.605Z,21.20
2023-05-09T05:47:46.387Z,19.27
2023-05-09T05:52:48.645Z,20.33
2023-05-09T05:57:50.288Z,20.87
2023-05-09T06:02:52.117Z,20.33
2023-05-09T06:07:53.787Z,21.73
2023-05-09T06:12:55.438Z,22.57
2023-05-09T06:17:57.200Z,23.50
2023-05-09T06:22:58.929Z,21.83
2023-05-09T06:28:00.707Z,22.23
2023-05-09T06:33:02.827Z,22.03
2023-05-09T06:38:04.538Z,20.03
2023-05-09T06:43:06.531Z,19.23
2023-05-09T06:48:08.254Z,18.70
2023-05-09T06:53:09.986Z,16.07
2023-05-09T06:58:12.161Z,16.47
2023-05-09T07:03:13.854Z,15.73
2023-05-09T07:08:15.580Z,15.90
2023-05-09T07:13:17.279Z,14.23
2023-05-09T07:18:18.997Z,12.67
2023-05-09T07:23:20.638Z,12.73
2023-05-09T07:28:22.252Z,12.17
2023-05-09T07:33:23.950Z,12.63
2023-05-09T07:38:26.709Z,12.33
2023-05-09T07:43:28.389Z,11.43
2023-05-09T07:48:30.159Z,10.80
2023-05-09T07:53:31.875Z,9.87
2023-05-09T07:58:33.688Z,10.67
2023-05-09T08:03:35.466Z,11.40
2023-05-09T08:08:38.362Z,11.50
2023-05-09T08:13:40.608Z,12.00
2023-05-09T08:18:42.192Z,10.43
2023-05-09T08:23:43.792Z,11.27
2023-05-09T08:28:45.525Z,9.30
2023-05-09T08:33:47.225Z,10.23
2023-05-09T08:38:49.594Z,9.57
2023-05-09T08:43:51.414Z,10.90
2023-05-09T08:48:53.722Z,8.77
2023-05-09T08:53:55.521Z,8.55
2023-05-09T08:58:57.417Z,7.72
2023-05-09T09:03:59.632Z,9.15
2023-05-09T09:09:01.496Z,8.50
2023-05-09T09:14:13.991Z,10.80
2023-05-09T09:19:17.837Z,7.93
2023-05-09T09:24:23.069Z,7.80
2023-05-09T09:29:28.861Z,7.40
2023-05-09T09:34:30.519Z,6.40
2023-05-09T09:39:32.136Z,6.95
2023-05-09T09:44:33.783Z,5.82
2023-05-09T09:49:35.400Z,7.60
2023-05-09T09:54:38.677Z,6.28
2023-05-09T09:59:40.484Z,6.72
2023-05-09T10:04:43.356Z,6.60
2023-05-09T10:09:45.658Z,6.47
2023-05-09T10:14:48.523Z,7.40
2023-05-09T10:19:51.127Z,7.05
2023-05-09T10:25:06.581Z,6.38
2023-05-09T10:30:12.829Z,6.07
2023-05-09T10:35:17.302Z,13.43
2023-05-09T10:40:20.093Z,6.32
2023-05-09T10:45:22.814Z,5.55
2023-05-09T10:50:25.944Z,6.38
2023-05-09T10:55:37.679Z,5.53
2023-05-09T11:06:52.748Z,4.65
2023-05-09T11:11:57.417Z,6.07
2023-05-09T11:17:04.390Z,7.38
2023-05-09T11:22:16.262Z,5.20
2023-05-09T11:27:23.929Z,5.43
2023-05-09T11:32:32.538Z,5.72
2023-05-09T11:37:34.192Z,5.30
2023-05-09T11:42:36.042Z,5.28
2023-05-09T11:47:38.357Z,5.28
2023-05-09T11:52:41.653Z,4.53
2023-05-09T11:57:47.053Z,5.75
2023-05-09T12:02:50.271Z,6.05
2023-05-09T12:07:52.855Z,6.88
2023-05-09T12:12:56.071Z,5.97
2023-05-09T12:18:05.693Z,6.93
2023-05-09T12:23:08.117Z,6.03
2023-05-09T12:28:09.876Z,5.93
2023-05-09T12:33:12.427Z,5.70
2023-05-09T12:38:15.924Z,6.07
2023-05-09T12:43:18.019Z,8.73
2023-05-09T12:48:23.443Z,5.03
2023-05-09T12:53:27.209Z,8.10
2023-05-09T12:58:33.171Z,4.78
2023-05-09T13:03:38.015Z,4.38
2023-05-09T13:08:40.976Z,6.85
2023-05-09T13:13:42.738Z,3.90
2023-05-09T13:18:44.364Z,6.20
2023-05-09T13:23:46.106Z,5.82
2023-05-09T13:28:48.765Z,5.72
2023-05-09T13:33:52.014Z,4.47
2023-05-09T13:38:53.981Z,3.92
2023-05-09T13:43:55.639Z,3.92
2023-05-09T13:48:57.282Z,4.68
2023-05-09T13:53:58.955Z,6.90
2023-05-09T13:59:00.551Z,5.43
2023-05-09T14:04:02.726Z,4.78
2023-05-09T14:09:04.431Z,6.80
2023-05-09T14:14:06.078Z,4.82
2023-05-09T14:19:07.743Z,4.20
2023-05-09T14:24:11.365Z,5.03
2023-05-09T14:29:14.212Z,5.28
2023-05-09T14:34:15.813Z,3.80
2023-05-09T14:39:17.414Z,3.70
2023-05-09T14:44:19.036Z,3.47
2023-05-09T14:49:20.914Z,3.50
2023-05-09T14:54:22.952Z,3.40
2023-05-09T14:59:24.634Z,3.60
2023-05-09T15:04:30.478Z,3.83
2023-05-09T15:09:32.380Z,4.40
2023-05-09T15:14:34.030Z,5.30
2023-05-09T15:19:36.505Z,4.22
2023-05-09T15:24:38.253Z,3.92
2023-05-09T15:29:41.930Z,4.10
2023-05-09T15:34:43.690Z,4.93
2023-05-09T15:39:45.706Z,5.95
2023-05-09T15:44:47.340Z,5.93
2023-05-09T15:49:49.062Z,5.72
2023-05-09T15:54:50.937Z,4.90
2023-05-09T15:59:55.275Z,5.72
2023-05-09T16:04:56.888Z,6.55
2023-05-09T16:09:58.595Z,5.28
2023-05-09T16:15:00.421Z,5.20
2023-05-09T16:20:02.525Z,6.88
2023-05-09T16:25:04.504Z,6.75
2023-05-09T16:30:06.678Z,7.40
2023-05-09T16:35:09.742Z,3.63
2023-05-09T16:40:12.222Z,5.05
2023-05-09T16:45:13.937Z,3.47
2023-05-09T16:50:15.773Z,4.97
2023-05-09T16:55:17.852Z,2.85
2023-05-09T17:00:20.160Z,2.70
2023-05-09T17:05:22.118Z,3.30
2023-05-09T17:10:23.915Z,2.50
2023-05-09T17:15:25.761Z,3.20
2023-05-09T17:20:28.906Z,2.77
2023-05-09T17:25:30.686Z,3.00
2023-05-09T17:30:32.433Z,2.80
2023-05-09T17:35:34.038Z,3.77
2023-05-09T17:40:35.629Z,5.83
2023-05-09T17:45:38.063Z,4.27
2023-05-09T17:50:39.860Z,4.43
2023-05-09T17:55:42.518Z,4.50
2023-05-09T18:00:44.756Z,2.70
2023-05-09T18:05:46.677Z,2.30
2023-05-09T18:10:48.383Z,2.60
2023-05-09T18:15:50.031Z,2.60
2023-05-09T18:20:51.831Z,2.77
2023-05-09T18:25:54.240Z,3.20
2023-05-09T18:30:58.154Z,4.00
2023-05-09T18:36:00.265Z,2.90
2023-05-09T18:41:01.911Z,3.27
2023-05-09T18:46:03.665Z,3.27
2023-05-09T18:51:05.476Z,3.20
2023-05-09T18:56:07.740Z,3.20
2023-05-09T19:01:11.518Z,3.50
2023-05-09T19:06:14.476Z,3.20
2023-05-09T19:11:16.265Z,6.00
2023-05-09T19:16:19.871Z,3.33
2023-05-09T19:21:21.801Z,4.00
2023-05-09T19:26:23.484Z,3.13
2023-05-09T19:31:25.738Z,4.20
2023-05-09T19:36:27.594Z,3.53
2023-05-09T19:41:29.233Z,6.30
2023-05-09T19:46:31.019Z,2.90
2023-05-09T19:51:32.691Z,4.90
2023-05-09T19:56:34.286Z,2.97
2023-05-09T20:01:36.130Z,3.10
2023-05-09T20:06:38.106Z,4.03
2023-05-09T20:11:39.790Z,3.10
2023-05-09T20:16:42.573Z,3.13
2023-05-09T20:21:44.482Z,3.47
2023-05-09T20:26:46.136Z,3.53
2023-05-09T20:31:47.868Z,4.80
2023-05-09T20:36:53.307Z,3.57
2023-05-09T20:41:55.927Z,3.77
2023-05-09T20:46:57.582Z,4.17
2023-05-09T20:51:59.545Z,4.20
2023-05-09T20:57:01.217Z,4.10
2023-05-09T21:02:02.933Z,4.80
2023-05-09T21:07:04.674Z,4.83
2023-05-09T21:12:06.951Z,4.43
2023-05-09T21:17:09.700Z,3.83
2023-05-09T21:22:11.311Z,4.03
2023-05-09T21:27:12.970Z,2.13
2023-05-09T21:32:14.953Z,2.20
2023-05-09T21:37:16.663Z,2.27
2023-05-09T21:42:18.280Z,2.10
2023-05-09T21:47:19.999Z,2.20
2023-05-09T21:52:23.596Z,3.07
2023-05-09T21:57:25.670Z,3.70
2023-05-09T22:02:29.063Z,2.07
2023-05-09T22:07:30.935Z,1.90
2023-05-09T22:12:32.629Z,2.17
2023-05-09T22:17:34.712Z,2.00
2023-05-09T22:22:36.439Z,2.17
2023-05-09T22:27:38.105Z,3.13
2023-05-09T22:32:40.299Z,2.10
2023-05-09T22:37:41.941Z,2.00
2023-05-09T22:42:43.598Z,2.17
2023-05-09T22:47:45.289Z,2.00
2023-05-09T22:52:47.025Z,1.80
2023-05-09T22:57:48.696Z,2.20
2023-05-09T23:02:50.535Z,2.50
2023-05-09T23:07:52.237Z,2.00
2023-05-09T23:12:53.917Z,2.17
2023-05-09T23:17:55.582Z,2.03
2023-05-09T23:22:57.288Z,3.60
2023-05-09T23:27:58.899Z,2.53
2023-05-09T23:33:00.737Z,2.60
2023-05-09T23:38:04.396Z,2.50
2023-05-09T23:43:06.109Z,2.10
2023-05-09T23:48:07.927Z,2.10
2023-05-09T23:53:09.582Z,2.60
2023-05-09T23:58:11.199Z,2.33
